sensor_id;sensor_type;location;lat;lon;timestamp;pressure;altitude;pressure_sealevel;temperature;humidity
72640;BME280;60683;51.730;8.762;2024-02-23T00:01:15;97391.59;;;7.92;74.90
72640;BME280;60683;51.730;8.762;2024-02-23T00:04:00;97400.75;;;7.86;75.42
72640;BME280;60683;51.730;8.762;2024-02-23T00:06:46;97409.13;;;7.79;75.32
72640;BME280;60683;51.730;8.762;2024-02-23T00:09:32;97404.06;;;7.78;73.78
72640;BME280;60683;51.730;8.762;2024-02-23T00:12:17;97419.34;;;7.72;74.52
72640;BME280;60683;51.730;8.762;2024-02-23T00:15:02;97435.72;;;7.66;73.58
72640;BME280;60683;51.730;8.762;2024-02-23T00:17:49;97441.13;;;7.55;74.83
72640;BME280;60683;51.730;8.762;2024-02-23T00:20:35;97453.25;;;7.43;75.29
72640;BME280;60683;51.730;8.762;2024-02-23T00:23:20;97452.53;;;7.32;76.85
72640;BME280;60683;51.730;8.762;2024-02-23T00:26:05;97452.88;;;7.20;77.59
72640;BME280;60683;51.730;8.762;2024-02-23T00:28:51;97493.75;;;7.21;77.19
72640;BME280;60683;51.730;8.762;2024-02-23T00:31:37;97488.97;;;7.18;77.97
72640;BME280;60683;51.730;8.762;2024-02-23T00:34:26;97488.97;;;7.18;77.65
72640;BME280;60683;51.730;8.762;2024-02-23T00:37:11;97521.59;;;7.15;78.36
72640;BME280;60683;51.730;8.762;2024-02-23T00:39:57;97545.91;;;7.08;80.30
72640;BME280;60683;51.730;8.762;2024-02-23T00:42:42;97538.75;;;6.98;82.39
72640;BME280;60683;51.730;8.762;2024-02-23T00:45:28;97553.72;;;6.89;82.62
72640;BME280;60683;51.730;8.762;2024-02-23T00:48:13;97560.69;;;6.85;83.84
72640;BME280;60683;51.730;8.762;2024-02-23T00:51:01;97585.25;;;6.77;84.96
72640;BME280;60683;51.730;8.762;2024-02-23T00:53:46;97591.97;;;6.70;85.99
72640;BME280;60683;51.730;8.762;2024-02-23T00:56:31;97607.19;;;6.69;84.65
72640;BME280;60683;51.730;8.762;2024-02-23T00:59:17;97626.97;;;6.63;85.16
72640;BME280;60683;51.730;8.762;2024-02-23T01:02:02;97613.09;;;6.61;84.97
72640;BME280;60683;51.730;8.762;2024-02-23T01:04:49;97640.31;;;6.58;86.43
72640;BME280;60683;51.730;8.762;2024-02-23T01:07:36;97675.28;;;6.46;88.29
72640;BME280;60683;51.730;8.762;2024-02-23T01:10:21;97672.06;;;6.14;94.00
72640;BME280;60683;51.730;8.762;2024-02-23T01:13:06;97679.13;;;5.83;99.93
72640;BME280;60683;51.730;8.762;2024-02-23T01:15:51;97697.22;;;5.65;100.00
72640;BME280;60683;51.730;8.762;2024-02-23T01:18:38;97708.19;;;5.69;99.94
72640;BME280;60683;51.730;8.762;2024-02-23T01:21:23;97698.31;;;5.70;99.70
72640;BME280;60683;51.730;8.762;2024-02-23T01:24:10;97739.38;;;5.69;99.88
72640;BME280;60683;51.730;8.762;2024-02-23T01:26:55;97738.53;;;5.63;97.12
72640;BME280;60683;51.730;8.762;2024-02-23T01:29:41;97736.38;;;5.55;97.92
72640;BME280;60683;51.730;8.762;2024-02-23T01:32:27;97736.03;;;5.46;96.71
72640;BME280;60683;51.730;8.762;2024-02-23T01:35:13;97755.97;;;5.39;97.50
72640;BME280;60683;51.730;8.762;2024-02-23T01:37:58;97766.38;;;5.40;96.80
72640;BME280;60683;51.730;8.762;2024-02-23T01:40:45;97769.56;;;5.37;96.86
72640;BME280;60683;51.730;8.762;2024-02-23T01:43:30;97766.06;;;5.31;97.01
72640;BME280;60683;51.730;8.762;2024-02-23T01:46:17;97785.47;;;5.27;96.92
72640;BME280;60683;51.730;8.762;2024-02-23T01:49:03;97785.97;;;5.19;98.57
72640;BME280;60683;51.730;8.762;2024-02-23T01:51:50;97793.69;;;5.15;98.96
72640;BME280;60683;51.730;8.762;2024-02-23T01:54:35;97798.19;;;5.15;99.50
72640;BME280;60683;51.730;8.762;2024-02-23T01:57:23;97794.47;;;5.16;100.00
72640;BME280;60683;51.730;8.762;2024-02-23T02:00:11;97811.25;;;5.16;100.00
72640;BME280;60683;51.730;8.762;2024-02-23T02:03:00;97805.09;;;5.11;100.00
72640;BME280;60683;51.730;8.762;2024-02-23T02:05:45;97819.88;;;4.96;100.00
72640;BME280;60683;51.730;8.762;2024-02-23T02:08:31;97814.22;;;4.88;100.00
72640;BME280;60683;51.730;8.762;2024-02-23T02:11:17;97824.22;;;4.76;100.00
72640;BME280;60683;51.730;8.762;2024-02-23T02:14:03;97824.38;;;4.64;100.00
72640;BME280;60683;51.730;8.762;2024-02-23T02:16:48;97828.00;;;4.53;100.00
72640;BME280;60683;51.730;8.762;2024-02-23T02:19:34;97833.63;;;4.56;100.00
72640;BME280;60683;51.730;8.762;2024-02-23T02:22:19;97841.06;;;4.54;100.00
72640;BME280;60683;51.730;8.762;2024-02-23T02:25:06;97836.34;;;4.61;100.00
72640;BME280;60683;51.730;8.762;2024-02-23T02:27:51;97842.53;;;4.67;100.00
72640;BME280;60683;51.730;8.762;2024-02-23T02:30:38;97850.53;;;4.72;100.00
72640;BME280;60683;51.730;8.762;2024-02-23T02:33:23;97846.91;;;4.83;100.00
72640;BME280;60683;51.730;8.762;2024-02-23T02:36:09;97858.13;;;4.85;100.00
72640;BME280;60683;51.730;8.762;2024-02-23T02:38:55;97856.56;;;4.89;100.00
72640;BME280;60683;51.730;8.762;2024-02-23T02:41:41;97864.19;;;4.81;100.00
72640;BME280;60683;51.730;8.762;2024-02-23T02:44:26;97867.03;;;4.74;100.00
72640;BME280;60683;51.730;8.762;2024-02-23T02:47:15;97877.13;;;4.67;100.00
72640;BME280;60683;51.730;8.762;2024-02-23T02:50:01;97883.25;;;4.73;100.00
72640;BME280;60683;51.730;8.762;2024-02-23T02:52:46;97885.47;;;4.81;100.00
72640;BME280;60683;51.730;8.762;2024-02-23T02:55:31;97870.97;;;4.93;98.29
72640;BME280;60683;51.730;8.762;2024-02-23T02:58:16;97886.75;;;5.00;96.75
72640;BME280;60683;51.730;8.762;2024-02-23T03:01:02;97886.03;;;5.10;94.72
72640;BME280;60683;51.730;8.762;2024-02-23T03:03:48;97880.22;;;5.13;94.64
72640;BME280;60683;51.730;8.762;2024-02-23T03:06:33;97874.94;;;5.23;92.19
72640;BME280;60683;51.730;8.762;2024-02-23T03:09:19;97894.13;;;5.25;92.02
72640;BME280;60683;51.730;8.762;2024-02-23T03:12:05;97893.03;;;5.21;91.52
72640;BME280;60683;51.730;8.762;2024-02-23T03:14:51;97887.81;;;5.31;89.77
72640;BME280;60683;51.730;8.762;2024-02-23T03:17:36;97892.63;;;5.34;89.81
72640;BME280;60683;51.730;8.762;2024-02-23T03:20:23;97897.44;;;5.37;89.17
72640;BME280;60683;51.730;8.762;2024-02-23T03:23:08;97894.81;;;5.42;88.46
72640;BME280;60683;51.730;8.762;2024-02-23T03:25:53;97889.00;;;5.45;87.91
72640;BME280;60683;51.730;8.762;2024-02-23T03:28:38;97894.31;;;5.45;87.34
72640;BME280;60683;51.730;8.762;2024-02-23T03:31:24;97895.88;;;5.41;87.08
72640;BME280;60683;51.730;8.762;2024-02-23T03:34:09;97897.69;;;5.36;87.60
72640;BME280;60683;51.730;8.762;2024-02-23T03:36:56;97908.31;;;5.30;88.20
72640;BME280;60683;51.730;8.762;2024-02-23T03:39:42;97898.75;;;5.35;86.81
72640;BME280;60683;51.730;8.762;2024-02-23T03:42:28;97907.31;;;5.37;87.90
72640;BME280;60683;51.730;8.762;2024-02-23T03:45:13;97899.06;;;5.38;86.92
72640;BME280;60683;51.730;8.762;2024-02-23T03:47:59;97906.00;;;5.39;87.28
72640;BME280;60683;51.730;8.762;2024-02-23T03:51:08;97898.47;;;5.31;88.19
72640;BME280;60683;51.730;8.762;2024-02-23T03:53:55;97913.09;;;5.28;88.02
72640;BME280;60683;51.730;8.762;2024-02-23T03:56:40;97908.00;;;5.27;88.99
72640;BME280;60683;51.730;8.762;2024-02-23T03:59:26;97906.41;;;5.26;88.58
72640;BME280;60683;51.730;8.762;2024-02-23T04:02:11;97931.47;;;5.30;87.68
72640;BME280;60683;51.730;8.762;2024-02-23T04:04:56;97936.81;;;5.30;87.51
72640;BME280;60683;51.730;8.762;2024-02-23T04:07:41;97936.31;;;5.33;87.88
72640;BME280;60683;51.730;8.762;2024-02-23T04:10:29;97944.28;;;5.33;88.86
72640;BME280;60683;51.730;8.762;2024-02-23T04:13:13;97943.75;;;5.31;87.23
72640;BME280;60683;51.730;8.762;2024-02-23T04:16:00;97952.78;;;5.30;86.60
72640;BME280;60683;51.730;8.762;2024-02-23T04:18:45;97962.66;;;5.29;85.40
72640;BME280;60683;51.730;8.762;2024-02-23T04:21:31;97970.63;;;5.29;85.91
72640;BME280;60683;51.730;8.762;2024-02-23T04:24:16;97968.28;;;5.33;85.08
72640;BME280;60683;51.730;8.762;2024-02-23T04:27:04;97974.16;;;5.35;84.32
72640;BME280;60683;51.730;8.762;2024-02-23T04:29:49;97976.03;;;5.35;84.66
72640;BME280;60683;51.730;8.762;2024-02-23T04:32:35;97967.13;;;5.24;85.37
72640;BME280;60683;51.730;8.762;2024-02-23T04:35:20;97973.16;;;5.14;85.82
72640;BME280;60683;51.730;8.762;2024-02-23T04:38:05;97975.28;;;5.12;85.44
72640;BME280;60683;51.730;8.762;2024-02-23T04:40:51;97979.56;;;5.13;84.69
72640;BME280;60683;51.730;8.762;2024-02-23T04:43:37;97972.06;;;5.10;84.17
72640;BME280;60683;51.730;8.762;2024-02-23T04:46:22;97973.88;;;5.05;84.36
72640;BME280;60683;51.730;8.762;2024-02-23T04:49:08;97975.38;;;4.95;85.53
72640;BME280;60683;51.730;8.762;2024-02-23T04:51:56;97983.09;;;4.97;85.87
72640;BME280;60683;51.730;8.762;2024-02-23T04:54:41;97983.91;;;4.97;85.41
72640;BME280;60683;51.730;8.762;2024-02-23T04:57:26;97993.56;;;5.04;85.87
72640;BME280;60683;51.730;8.762;2024-02-23T05:00:14;97991.94;;;5.03;85.64
72640;BME280;60683;51.730;8.762;2024-02-23T05:02:59;97999.69;;;5.04;85.77
72640;BME280;60683;51.730;8.762;2024-02-23T05:05:47;97998.69;;;5.10;85.01
72640;BME280;60683;51.730;8.762;2024-02-23T05:08:35;98001.13;;;5.12;84.20
72640;BME280;60683;51.730;8.762;2024-02-23T05:11:20;98006.19;;;5.13;84.85
72640;BME280;60683;51.730;8.762;2024-02-23T05:14:05;97999.00;;;5.14;85.06
72640;BME280;60683;51.730;8.762;2024-02-23T05:16:52;98005.69;;;5.16;84.41
72640;BME280;60683;51.730;8.762;2024-02-23T05:19:37;98015.22;;;5.12;85.70
72640;BME280;60683;51.730;8.762;2024-02-23T05:22:22;98019.69;;;5.07;86.17
72640;BME280;60683;51.730;8.762;2024-02-23T05:25:08;98018.88;;;5.06;85.82
72640;BME280;60683;51.730;8.762;2024-02-23T05:27:54;98018.69;;;5.13;85.06
72640;BME280;60683;51.730;8.762;2024-02-23T05:30:39;98012.81;;;5.11;85.21
72640;BME280;60683;51.730;8.762;2024-02-23T05:33:25;98014.13;;;5.08;84.75
72640;BME280;60683;51.730;8.762;2024-02-23T05:36:10;98019.81;;;4.95;85.22
72640;BME280;60683;51.730;8.762;2024-02-23T05:38:56;98021.63;;;4.89;85.60
72640;BME280;60683;51.730;8.762;2024-02-23T05:41:41;98026.88;;;4.84;85.90
72640;BME280;60683;51.730;8.762;2024-02-23T05:44:26;98023.16;;;4.85;85.28
72640;BME280;60683;51.730;8.762;2024-02-23T05:47:12;98038.31;;;4.85;84.46
72640;BME280;60683;51.730;8.762;2024-02-23T05:50:00;98038.56;;;4.83;84.45
72640;BME280;60683;51.730;8.762;2024-02-23T05:52:45;98041.53;;;4.87;84.74
72640;BME280;60683;51.730;8.762;2024-02-23T05:55:30;98048.63;;;4.98;83.64
72640;BME280;60683;51.730;8.762;2024-02-23T05:58:15;98057.41;;;4.98;83.92
72640;BME280;60683;51.730;8.762;2024-02-23T06:01:01;98052.94;;;5.04;83.28
72640;BME280;60683;51.730;8.762;2024-02-23T06:03:46;98064.47;;;5.10;82.63
72640;BME280;60683;51.730;8.762;2024-02-23T06:06:33;98062.84;;;5.09;83.35
72640;BME280;60683;51.730;8.762;2024-02-23T06:09:18;98066.09;;;5.11;83.72
72640;BME280;60683;51.730;8.762;2024-02-23T06:12:04;98073.81;;;5.12;83.11
72640;BME280;60683;51.730;8.762;2024-02-23T06:14:50;98074.56;;;5.08;83.36
72640;BME280;60683;51.730;8.762;2024-02-23T06:17:37;98072.47;;;5.10;83.46
72640;BME280;60683;51.730;8.762;2024-02-23T06:20:23;98076.97;;;5.09;83.12
72640;BME280;60683;51.730;8.762;2024-02-23T06:23:10;98085.28;;;5.13;81.94
72640;BME280;60683;51.730;8.762;2024-02-23T06:25:55;98075.19;;;5.15;82.10
72640;BME280;60683;51.730;8.762;2024-02-23T06:28:42;98074.88;;;5.11;82.49
72640;BME280;60683;51.730;8.762;2024-02-23T06:31:27;98067.63;;;5.07;83.11
72640;BME280;60683;51.730;8.762;2024-02-23T06:34:13;98072.94;;;5.07;82.77
72640;BME280;60683;51.730;8.762;2024-02-23T06:36:59;98071.28;;;5.01;82.68
72640;BME280;60683;51.730;8.762;2024-02-23T06:39:45;98075.50;;;4.96;82.99
72640;BME280;60683;51.730;8.762;2024-02-23T06:42:35;98071.63;;;4.87;83.63
72640;BME280;60683;51.730;8.762;2024-02-23T06:45:20;98073.66;;;4.80;83.55
72640;BME280;60683;51.730;8.762;2024-02-23T06:48:09;98069.09;;;4.76;83.18
72640;BME280;60683;51.730;8.762;2024-02-23T06:50:54;98073.84;;;4.74;84.32
72640;BME280;60683;51.730;8.762;2024-02-23T06:53:40;98072.97;;;4.68;85.33
72640;BME280;60683;51.730;8.762;2024-02-23T06:56:27;98075.16;;;4.71;84.48
72640;BME280;60683;51.730;8.762;2024-02-23T06:59:13;98075.28;;;4.81;83.78
72640;BME280;60683;51.730;8.762;2024-02-23T07:01:58;98086.06;;;4.91;83.15
72640;BME280;60683;51.730;8.762;2024-02-23T07:04:43;98081.31;;;4.93;83.40
72640;BME280;60683;51.730;8.762;2024-02-23T07:07:29;98090.28;;;4.87;83.70
72640;BME280;60683;51.730;8.762;2024-02-23T07:10:16;98080.44;;;4.88;83.26
72640;BME280;60683;51.730;8.762;2024-02-23T07:13:06;98086.56;;;4.88;83.27
72640;BME280;60683;51.730;8.762;2024-02-23T07:15:51;98084.94;;;4.87;83.12
72640;BME280;60683;51.730;8.762;2024-02-23T07:18:36;98100.13;;;4.87;84.01
72640;BME280;60683;51.730;8.762;2024-02-23T07:21:21;98100.94;;;4.87;83.08
72640;BME280;60683;51.730;8.762;2024-02-23T07:24:07;98106.81;;;4.89;83.80
72640;BME280;60683;51.730;8.762;2024-02-23T07:26:52;98105.19;;;4.88;84.07
72640;BME280;60683;51.730;8.762;2024-02-23T07:29:39;98115.59;;;4.90;83.38
72640;BME280;60683;51.730;8.762;2024-02-23T07:32:25;98116.47;;;4.95;83.70
72640;BME280;60683;51.730;8.762;2024-02-23T07:35:11;98117.03;;;4.97;83.29
72640;BME280;60683;51.730;8.762;2024-02-23T07:37:56;98118.72;;;5.04;83.31
72640;BME280;60683;51.730;8.762;2024-02-23T07:40:41;98123.81;;;5.05;82.80
72640;BME280;60683;51.730;8.762;2024-02-23T07:43:27;98133.78;;;5.15;83.44
72640;BME280;60683;51.730;8.762;2024-02-23T07:46:14;98137.75;;;5.12;83.10
72640;BME280;60683;51.730;8.762;2024-02-23T07:49:00;98142.91;;;5.19;82.91
72640;BME280;60683;51.730;8.762;2024-02-23T07:51:46;98136.50;;;5.20;82.05
72640;BME280;60683;51.730;8.762;2024-02-23T07:54:31;98145.84;;;5.22;81.31
72640;BME280;60683;51.730;8.762;2024-02-23T07:57:17;98145.34;;;5.25;81.18
72640;BME280;60683;51.730;8.762;2024-02-23T08:00:02;98156.25;;;5.24;80.90
72640;BME280;60683;51.730;8.762;2024-02-23T08:02:49;98153.53;;;5.19;80.76
72640;BME280;60683;51.730;8.762;2024-02-23T08:05:35;98157.75;;;5.15;81.07
72640;BME280;60683;51.730;8.762;2024-02-23T08:08:20;98170.59;;;5.18;80.57
72640;BME280;60683;51.730;8.762;2024-02-23T08:11:07;98176.81;;;5.28;80.61
72640;BME280;60683;51.730;8.762;2024-02-23T08:13:53;98184.78;;;5.45;79.72
72640;BME280;60683;51.730;8.762;2024-02-23T08:16:38;98193.81;;;5.66;79.49
72640;BME280;60683;51.730;8.762;2024-02-23T08:19:24;98194.47;;;5.78;78.78
72640;BME280;60683;51.730;8.762;2024-02-23T08:22:09;98188.09;;;5.79;78.18
72640;BME280;60683;51.730;8.762;2024-02-23T08:24:54;98193.22;;;5.86;77.47
72640;BME280;60683;51.730;8.762;2024-02-23T08:27:40;98188.75;;;6.13;77.94
72640;BME280;60683;51.730;8.762;2024-02-23T08:30:26;98188.59;;;6.57;75.79
72640;BME280;60683;51.730;8.762;2024-02-23T08:33:11;98188.75;;;6.77;73.64
72640;BME280;60683;51.730;8.762;2024-02-23T08:35:58;98183.56;;;6.97;73.07
72640;BME280;60683;51.730;8.762;2024-02-23T08:38:43;98177.69;;;6.58;73.42
72640;BME280;60683;51.730;8.762;2024-02-23T08:41:29;98165.00;;;6.44;74.84
72640;BME280;60683;51.730;8.762;2024-02-23T08:44:14;98162.75;;;6.30;74.91
72640;BME280;60683;51.730;8.762;2024-02-23T08:46:59;98166.56;;;6.40;74.76
72640;BME280;60683;51.730;8.762;2024-02-23T08:49:45;98166.47;;;6.29;75.27
72640;BME280;60683;51.730;8.762;2024-02-23T08:52:31;98174.22;;;6.31;73.75
72640;BME280;60683;51.730;8.762;2024-02-23T08:55:17;98166.56;;;6.40;75.22
72640;BME280;60683;51.730;8.762;2024-02-23T08:58:03;98172.88;;;6.28;73.65
72640;BME280;60683;51.730;8.762;2024-02-23T09:00:50;98177.09;;;6.24;74.04
72640;BME280;60683;51.730;8.762;2024-02-23T09:03:35;98182.59;;;6.40;73.16
72640;BME280;60683;51.730;8.762;2024-02-23T09:06:20;98186.84;;;6.41;72.84
72640;BME280;60683;51.730;8.762;2024-02-23T09:09:07;98194.66;;;6.47;73.27
72640;BME280;60683;51.730;8.762;2024-02-23T09:11:52;98190.00;;;6.64;71.96
72640;BME280;60683;51.730;8.762;2024-02-23T09:14:37;98190.06;;;6.70;71.28
72640;BME280;60683;51.730;8.762;2024-02-23T09:17:23;98192.47;;;6.76;70.00
72640;BME280;60683;51.730;8.762;2024-02-23T09:20:11;98184.56;;;6.91;68.31
72640;BME280;60683;51.730;8.762;2024-02-23T09:22:56;98194.25;;;6.97;67.91
72640;BME280;60683;51.730;8.762;2024-02-23T09:25:43;98190.22;;;6.95;67.37
72640;BME280;60683;51.730;8.762;2024-02-23T09:28:29;98202.03;;;7.04;69.05
72640;BME280;60683;51.730;8.762;2024-02-23T09:31:15;98193.75;;;7.06;67.24
72640;BME280;60683;51.730;8.762;2024-02-23T09:34:00;98206.69;;;7.29;68.11
72640;BME280;60683;51.730;8.762;2024-02-23T09:36:45;98214.53;;;7.41;66.12
72640;BME280;60683;51.730;8.762;2024-02-23T09:39:30;98220.16;;;7.44;65.64
72640;BME280;60683;51.730;8.762;2024-02-23T09:42:18;98215.03;;;7.38;64.30
72640;BME280;60683;51.730;8.762;2024-02-23T09:45:07;98218.53;;;7.43;65.23
72640;BME280;60683;51.730;8.762;2024-02-23T09:47:54;98217.44;;;7.34;64.04
72640;BME280;60683;51.730;8.762;2024-02-23T09:50:41;98212.44;;;7.53;63.07
72640;BME280;60683;51.730;8.762;2024-02-23T09:53:27;98205.25;;;7.58;61.95
72640;BME280;60683;51.730;8.762;2024-02-23T09:56:12;98205.22;;;7.53;60.58
72640;BME280;60683;51.730;8.762;2024-02-23T09:59:03;98215.31;;;7.41;62.44
72640;BME280;60683;51.730;8.762;2024-02-23T10:01:48;98194.78;;;7.47;60.90
72640;BME280;60683;51.730;8.762;2024-02-23T10:04:37;98206.03;;;7.54;60.85
72640;BME280;60683;51.730;8.762;2024-02-23T10:07:24;98196.72;;;7.61;59.40
72640;BME280;60683;51.730;8.762;2024-02-23T10:10:10;98190.31;;;7.62;58.04
72640;BME280;60683;51.730;8.762;2024-02-23T10:12:55;98200.00;;;7.84;59.02
72640;BME280;60683;51.730;8.762;2024-02-23T10:15:41;98198.50;;;8.18;57.35
72640;BME280;60683;51.730;8.762;2024-02-23T10:18:26;98192.09;;;8.40;56.14
72640;BME280;60683;51.730;8.762;2024-02-23T10:21:11;98190.78;;;8.62;54.28
72640;BME280;60683;51.730;8.762;2024-02-23T10:23:56;98187.84;;;8.49;55.40
72640;BME280;60683;51.730;8.762;2024-02-23T10:26:42;98198.81;;;8.68;54.70
72640;BME280;60683;51.730;8.762;2024-02-23T10:29:27;98196.94;;;8.58;54.16
72640;BME280;60683;51.730;8.762;2024-02-23T10:32:14;98202.84;;;8.50;54.17
72640;BME280;60683;51.730;8.762;2024-02-23T10:35:00;98193.69;;;8.30;54.85
72640;BME280;60683;51.730;8.762;2024-02-23T10:37:49;98217.00;;;8.40;54.24
72640;BME280;60683;51.730;8.762;2024-02-23T10:40:38;98198.00;;;8.47;54.16
72640;BME280;60683;51.730;8.762;2024-02-23T10:43:32;98206.31;;;8.50;53.85
72640;BME280;60683;51.730;8.762;2024-02-23T10:46:18;98200.13;;;8.40;54.71
72640;BME280;60683;51.730;8.762;2024-02-23T10:49:06;98199.06;;;8.36;54.13
72640;BME280;60683;51.730;8.762;2024-02-23T10:51:53;98203.88;;;8.34;55.02
72640;BME280;60683;51.730;8.762;2024-02-23T10:54:39;98206.84;;;8.52;54.28
72640;BME280;60683;51.730;8.762;2024-02-23T10:57:25;98200.13;;;8.24;54.68
72640;BME280;60683;51.730;8.762;2024-02-23T11:00:12;98193.94;;;8.14;54.96
72640;BME280;60683;51.730;8.762;2024-02-23T11:02:59;98197.47;;;8.40;55.80
72640;BME280;60683;51.730;8.762;2024-02-23T11:05:48;98180.88;;;8.43;53.94
72640;BME280;60683;51.730;8.762;2024-02-23T11:08:34;98174.44;;;8.69;54.46
72640;BME280;60683;51.730;8.762;2024-02-23T11:11:20;98183.03;;;8.76;54.57
72640;BME280;60683;51.730;8.762;2024-02-23T11:14:07;98176.81;;;9.06;53.02
72640;BME280;60683;51.730;8.762;2024-02-23T11:16:53;98173.59;;;9.09;53.09
72640;BME280;60683;51.730;8.762;2024-02-23T11:19:39;98167.97;;;8.90;52.88
72640;BME280;60683;51.730;8.762;2024-02-23T11:22:31;98170.88;;;9.19;52.63
72640;BME280;60683;51.730;8.762;2024-02-23T11:25:17;98169.53;;;9.22;51.80
72640;BME280;60683;51.730;8.762;2024-02-23T11:28:02;98170.00;;;9.39;51.80
72640;BME280;60683;51.730;8.762;2024-02-23T11:30:50;98166.72;;;9.62;51.90
72640;BME280;60683;51.730;8.762;2024-02-23T11:33:38;98164.25;;;9.76;50.65
72640;BME280;60683;51.730;8.762;2024-02-23T11:36:23;98162.19;;;9.48;50.94
72640;BME280;60683;51.730;8.762;2024-02-23T11:39:10;98161.41;;;9.42;51.83
72640;BME280;60683;51.730;8.762;2024-02-23T11:41:57;98162.84;;;9.24;51.71
72640;BME280;60683;51.730;8.762;2024-02-23T11:44:43;98165.81;;;9.13;52.29
72640;BME280;60683;51.730;8.762;2024-02-23T11:47:28;98169.84;;;9.00;52.66
72640;BME280;60683;51.730;8.762;2024-02-23T11:50:14;98174.94;;;8.86;52.85
72640;BME280;60683;51.730;8.762;2024-02-23T11:53:01;98173.38;;;8.75;54.83
72640;BME280;60683;51.730;8.762;2024-02-23T11:55:49;98176.03;;;8.90;54.23
72640;BME280;60683;51.730;8.762;2024-02-23T11:58:34;98166.91;;;9.02;53.93
72640;BME280;60683;51.730;8.762;2024-02-23T12:01:20;98167.19;;;8.85;53.48
72640;BME280;60683;51.730;8.762;2024-02-23T12:04:05;98175.78;;;8.72;53.81
72640;BME280;60683;51.730;8.762;2024-02-23T12:06:50;98181.41;;;8.70;54.76
72640;BME280;60683;51.730;8.762;2024-02-23T12:09:36;98179.53;;;8.81;54.18
72640;BME280;60683;51.730;8.762;2024-02-23T12:12:27;98177.59;;;9.12;53.61
72640;BME280;60683;51.730;8.762;2024-02-23T12:15:12;98168.44;;;9.33;53.06
72640;BME280;60683;51.730;8.762;2024-02-23T12:17:58;98173.03;;;9.27;52.58
72640;BME280;60683;51.730;8.762;2024-02-23T12:20:47;98170.16;;;9.73;52.26
72640;BME280;60683;51.730;8.762;2024-02-23T12:23:42;98162.09;;;10.27;50.13
72640;BME280;60683;51.730;8.762;2024-02-23T12:26:28;98155.63;;;10.28;49.43
72640;BME280;60683;51.730;8.762;2024-02-23T12:29:15;98159.84;;;10.74;48.91
72640;BME280;60683;51.730;8.762;2024-02-23T12:32:03;98174.06;;;10.74;49.19
72640;BME280;60683;51.730;8.762;2024-02-23T12:34:49;98166.22;;;10.49;49.11
72640;BME280;60683;51.730;8.762;2024-02-23T12:37:34;98165.56;;;10.28;49.19
72640;BME280;60683;51.730;8.762;2024-02-23T12:40:20;98166.88;;;10.36;49.69
72640;BME280;60683;51.730;8.762;2024-02-23T12:43:05;98168.28;;;10.57;48.89
72640;BME280;60683;51.730;8.762;2024-02-23T12:45:52;98164.72;;;10.95;47.98
72640;BME280;60683;51.730;8.762;2024-02-23T12:48:38;98166.22;;;11.07;47.48
72640;BME280;60683;51.730;8.762;2024-02-23T12:51:25;98167.91;;;10.74;47.78
72640;BME280;60683;51.730;8.762;2024-02-23T12:54:10;98174.84;;;10.80;48.34
72640;BME280;60683;51.730;8.762;2024-02-23T12:56:56;98169.38;;;10.56;48.48
72640;BME280;60683;51.730;8.762;2024-02-23T12:59:40;98162.13;;;10.17;48.83
72640;BME280;60683;51.730;8.762;2024-02-23T13:02:28;98176.59;;;10.26;50.34
72640;BME280;60683;51.730;8.762;2024-02-23T13:05:13;98172.38;;;10.05;50.86
72640;BME280;60683;51.730;8.762;2024-02-23T13:08:00;98177.75;;;9.51;51.86
72640;BME280;60683;51.730;8.762;2024-02-23T13:10:45;98178.03;;;9.49;52.38
72640;BME280;60683;51.730;8.762;2024-02-23T13:13:30;98179.56;;;9.66;52.36
72640;BME280;60683;51.730;8.762;2024-02-23T13:16:16;98178.47;;;9.77;52.33
72640;BME280;60683;51.730;8.762;2024-02-23T13:19:02;98179.66;;;10.00;51.54
72640;BME280;60683;51.730;8.762;2024-02-23T13:21:49;98161.81;;;10.63;50.11
72640;BME280;60683;51.730;8.762;2024-02-23T13:24:34;98170.00;;;10.43;50.68
72640;BME280;60683;51.730;8.762;2024-02-23T13:27:19;98169.91;;;10.58;49.57
72640;BME280;60683;51.730;8.762;2024-02-23T13:30:05;98164.53;;;10.24;50.96
72640;BME280;60683;51.730;8.762;2024-02-23T13:32:52;98183.78;;;10.36;49.73
72640;BME280;60683;51.730;8.762;2024-02-23T13:35:39;98171.25;;;10.89;48.15
72640;BME280;60683;51.730;8.762;2024-02-23T13:38:24;98170.00;;;11.06;47.16
72640;BME280;60683;51.730;8.762;2024-02-23T13:41:09;98177.91;;;10.63;47.28
72640;BME280;60683;51.730;8.762;2024-02-23T13:43:55;98177.00;;;10.44;47.59
72640;BME280;60683;51.730;8.762;2024-02-23T13:46:40;98181.78;;;10.08;48.79
72640;BME280;60683;51.730;8.762;2024-02-23T13:49:26;98175.53;;;10.17;49.28
72640;BME280;60683;51.730;8.762;2024-02-23T13:52:13;98183.72;;;9.92;50.19
72640;BME280;60683;51.730;8.762;2024-02-23T13:55:00;98196.03;;;9.39;51.12
72640;BME280;60683;51.730;8.762;2024-02-23T13:57:45;98192.88;;;9.16;51.55
72640;BME280;60683;51.730;8.762;2024-02-23T14:00:30;98194.22;;;9.24;53.02
72640;BME280;60683;51.730;8.762;2024-02-23T14:03:17;98205.47;;;9.11;52.89
72640;BME280;60683;51.730;8.762;2024-02-23T14:06:03;98217.81;;;8.96;53.18
72640;BME280;60683;51.730;8.762;2024-02-23T14:08:50;98211.38;;;8.98;54.21
72640;BME280;60683;51.730;8.762;2024-02-23T14:11:35;98209.13;;;9.50;53.38
72640;BME280;60683;51.730;8.762;2024-02-23T14:14:20;98201.88;;;10.15;53.40
72640;BME280;60683;51.730;8.762;2024-02-23T14:17:06;98203.16;;;10.28;52.92
72640;BME280;60683;51.730;8.762;2024-02-23T14:19:52;98208.59;;;10.13;53.03
72640;BME280;60683;51.730;8.762;2024-02-23T14:22:37;98196.66;;;9.85;54.12
72640;BME280;60683;51.730;8.762;2024-02-23T14:25:24;98208.59;;;9.53;55.16
72640;BME280;60683;51.730;8.762;2024-02-23T14:28:09;98197.94;;;9.33;55.53
72640;BME280;60683;51.730;8.762;2024-02-23T14:30:56;98209.47;;;9.34;56.37
72640;BME280;60683;51.730;8.762;2024-02-23T14:33:41;98209.50;;;9.13;56.71
72640;BME280;60683;51.730;8.762;2024-02-23T14:36:26;98206.56;;;9.05;57.65
72640;BME280;60683;51.730;8.762;2024-02-23T14:39:12;98212.19;;;8.98;57.96
72640;BME280;60683;51.730;8.762;2024-02-23T14:41:59;98204.97;;;8.99;57.11
72640;BME280;60683;51.730;8.762;2024-02-23T14:44:44;98217.81;;;8.91;57.01
72640;BME280;60683;51.730;8.762;2024-02-23T14:47:30;98217.31;;;8.79;57.54
72640;BME280;60683;51.730;8.762;2024-02-23T14:50:15;98210.88;;;8.75;57.01